createdAt,value
2023-01-10T00:00:58.523Z,0.23
2023-01-10T00:04:00.359Z,0.30
2023-01-10T00:07:03.208Z,0.20
2023-01-10T00:10:05.483Z,0.30
2023-01-10T00:13:26.249Z,0.30
2023-01-10T00:16:28.163Z,0.13
2023-01-10T00:19:30.657Z,0.23
2023-01-10T00:22:32.600Z,0.30
2023-01-10T00:25:36.498Z,0.30
2023-01-10T00:28:39.660Z,0.30
2023-01-10T00:31:41.697Z,0.20
2023-01-10T00:34:43.537Z,0.20
2023-01-10T00:37:46.165Z,0.37
2023-01-10T00:40:48.060Z,0.10
2023-01-10T00:43:59.825Z,0.30
2023-01-10T00:47:01.766Z,0.30
2023-01-10T00:50:09.253Z,0.20
2023-01-10T00:53:11.040Z,0.30
2023-01-10T00:56:13.320Z,0.13
2023-01-10T00:59:15.192Z,0.30
2023-01-10T01:02:17.538Z,0.30
2023-01-10T01:05:19.870Z,0.30
2023-01-10T01:08:22.125Z,0.20
2023-01-10T01:11:23.952Z,0.30
2023-01-10T01:14:26.589Z,0.30
2023-01-10T01:17:28.466Z,0.20
2023-01-10T01:20:31.554Z,0.20
2023-01-10T01:23:35.411Z,0.20
2023-01-10T01:26:37.386Z,0.23
2023-01-10T01:29:43.298Z,0.20
2023-01-10T01:32:46.199Z,0.30
2023-01-10T01:35:50.535Z,0.40
2023-01-10T01:38:52.563Z,0.30
2023-01-10T01:41:57.230Z,0.20
2023-01-10T01:45:27.439Z,0.20
2023-01-10T01:48:37.005Z,0.20
2023-01-10T01:51:39.184Z,0.20
2023-01-10T01:54:41.118Z,0.20
2023-01-10T01:57:43.549Z,0.30
2023-01-10T02:00:45.552Z,0.20
2023-01-10T02:03:51.069Z,0.20
2023-01-10T02:06:56.030Z,0.20
2023-01-10T02:10:09.010Z,0.30
2023-01-10T02:13:13.085Z,0.30
2023-01-10T02:16:15.853Z,0.20
2023-01-10T02:19:43.588Z,0.60
2023-01-10T02:23:14.301Z,0.50
2023-01-10T02:26:39.611Z,0.30
2023-01-10T02:30:14.369Z,0.40
2023-01-10T02:33:41.645Z,0.30
2023-01-10T02:37:15.056Z,0.40
2023-01-10T02:40:25.166Z,0.23
2023-01-10T02:43:32.530Z,0.20
2023-01-10T02:46:35.313Z,0.30
2023-01-10T02:49:47.886Z,0.30
2023-01-10T02:52:49.945Z,0.30
2023-01-10T02:56:01.362Z,0.20
2023-01-10T02:59:32.980Z,0.40
2023-01-10T03:03:02.201Z,0.30
2023-01-10T03:06:17.760Z,0.20
2023-01-10T03:09:22.316Z,0.37
2023-01-10T03:12:38.186Z,0.30
2023-01-10T03:15:42.202Z,0.40
2023-01-10T03:19:02.683Z,0.30
2023-01-10T03:22:05.389Z,0.30
2023-01-10T03:25:09.302Z,0.40
2023-01-10T03:28:16.134Z,0.30
2023-01-10T03:31:24.284Z,0.30
2023-01-10T03:34:27.233Z,0.10
2023-01-10T03:37:50.890Z,0.30
2023-01-10T03:41:02.594Z,0.10
2023-01-10T03:44:34.460Z,0.20
2023-01-10T03:47:46.211Z,0.10
2023-01-10T03:50:49.007Z,0.10
2023-01-10T03:53:50.912Z,0.20
2023-01-10T03:56:52.777Z,0.10
2023-01-10T03:59:58.236Z,0.20
2023-01-10T04:03:00.138Z,0.30
2023-01-10T04:06:02.249Z,0.20
2023-01-10T04:09:05.060Z,0.40
2023-01-10T04:12:07.167Z,0.20
2023-01-10T04:15:09.889Z,0.23
2023-01-10T04:18:13.325Z,0.30
2023-01-10T04:21:15.236Z,0.20
2023-01-10T04:24:17.387Z,0.40
2023-01-10T04:27:19.862Z,0.50
2023-01-10T04:30:22.294Z,0.33
2023-01-10T04:33:24.188Z,0.40
2023-01-10T04:36:26.483Z,0.30
2023-01-10T04:39:28.528Z,0.30
2023-01-10T04:42:31.139Z,0.40
2023-01-10T04:45:33.023Z,0.30
2023-01-10T04:48:37.828Z,0.40
2023-01-10T04:51:39.916Z,0.20
2023-01-10T04:54:41.948Z,0.50
2023-01-10T04:57:43.894Z,0.30
2023-01-10T05:00:46.720Z,0.20
2023-01-10T05:03:49.597Z,0.30
2023-01-10T05:06:51.679Z,0.53
2023-01-10T05:09:53.626Z,0.50
2023-01-10T05:12:55.637Z,0.50
2023-01-10T05:15:58.532Z,0.50
2023-01-10T05:19:00.577Z,0.50
2023-01-10T05:22:02.427Z,0.50
2023-01-10T05:25:06.798Z,0.57
2023-01-10T05:28:08.820Z,1.23
2023-01-10T05:31:14.571Z,0.63
2023-01-10T05:34:16.445Z,0.40
2023-01-10T05:37:18.508Z,0.30
2023-01-10T05:40:20.402Z,0.37
2023-01-10T05:43:23.377Z,0.30
2023-01-10T05:46:25.392Z,0.40
2023-01-10T05:49:27.738Z,0.40
2023-01-10T05:52:29.806Z,0.23
2023-01-10T05:55:32.571Z,0.30
2023-01-10T05:58:34.583Z,0.23
2023-01-10T06:01:36.510Z,0.40
2023-01-10T06:04:38.431Z,0.40
2023-01-10T06:07:40.516Z,0.50
2023-01-10T06:10:43.227Z,0.67
2023-01-10T06:13:45.211Z,0.50
2023-01-10T06:16:47.482Z,0.30
2023-01-10T06:19:49.504Z,0.57
2023-01-10T06:22:51.414Z,0.33
2023-01-10T06:25:53.386Z,0.50
2023-01-10T06:28:55.306Z,0.40
2023-01-10T06:31:57.322Z,0.40
2023-01-10T06:34:59.196Z,0.43
2023-01-10T06:38:03.136Z,0.40
2023-01-10T06:41:13.359Z,0.60
2023-01-10T06:44:15.350Z,0.30
2023-01-10T06:47:17.305Z,0.37
2023-01-10T06:50:19.535Z,0.97
2023-01-10T06:53:21.373Z,0.80
2023-01-10T06:56:23.453Z,0.80
2023-01-10T06:59:25.378Z,0.60
2023-01-10T07:02:27.397Z,0.30
2023-01-10T07:05:30.648Z,0.30
2023-01-10T07:08:32.804Z,0.50
2023-01-10T07:11:35.690Z,0.70
2023-01-10T07:14:38.023Z,0.40
2023-01-10T07:17:40.212Z,0.40
2023-01-10T07:20:42.207Z,0.47
2023-01-10T07:23:44.230Z,0.40
2023-01-10T07:26:46.204Z,0.40
2023-01-10T07:29:48.110Z,0.47
2023-01-10T07:33:02.152Z,0.57
2023-01-10T07:36:04.209Z,0.50
2023-01-10T07:39:06.332Z,0.90
2023-01-10T07:42:10.149Z,0.70
2023-01-10T07:45:12.578Z,0.80
2023-01-10T07:48:14.529Z,0.70
2023-01-10T07:51:16.506Z,1.00
2023-01-10T07:54:18.413Z,0.93
2023-01-10T07:57:20.857Z,0.77
2023-01-10T08:00:22.923Z,0.47
2023-01-10T08:03:25.386Z,0.50
2023-01-10T08:06:27.478Z,0.30
2023-01-10T08:09:29.530Z,0.40
2023-01-10T08:12:31.927Z,0.50
2023-01-10T08:15:34.420Z,0.90
2023-01-10T08:18:36.468Z,1.30
2023-01-10T08:21:38.455Z,2.37
2023-01-10T08:24:40.379Z,6.57
2023-01-10T08:27:42.384Z,2.70
2023-01-10T08:30:44.223Z,1.73
2023-01-10T08:33:46.242Z,0.63
2023-01-10T08:36:55.088Z,0.70
2023-01-10T08:39:57.533Z,0.30
2023-01-10T08:43:04.922Z,0.43
2023-01-10T08:46:07.473Z,0.43
2023-01-10T08:49:09.579Z,0.57
2023-01-10T08:52:11.796Z,0.70
2023-01-10T08:55:13.680Z,0.70
2023-01-10T08:58:16.415Z,1.00
2023-01-10T09:01:18.294Z,0.90
2023-01-10T09:04:20.586Z,1.07
2023-01-10T09:07:22.515Z,0.60
2023-01-10T09:10:24.497Z,0.70
2023-01-10T09:13:27.228Z,1.00
2023-01-10T09:16:29.220Z,0.50
2023-01-10T09:19:31.185Z,0.93
2023-01-10T09:22:33.634Z,1.00
2023-01-10T09:25:35.885Z,0.70
2023-01-10T09:28:38.515Z,0.70
2023-01-10T09:31:40.400Z,1.10
2023-01-10T09:34:42.467Z,0.93
2023-01-10T09:37:44.456Z,0.60
2023-01-10T09:41:10.571Z,0.87
2023-01-10T09:44:47.962Z,1.10
2023-01-10T09:48:05.256Z,1.20
2023-01-10T09:51:26.267Z,0.93
2023-01-10T09:54:30.690Z,1.13
2023-01-10T09:57:35.049Z,1.40
2023-01-10T10:01:08.779Z,1.00
2023-01-10T10:04:19.879Z,1.00
2023-01-10T10:07:22.319Z,0.90
2023-01-10T10:10:35.075Z,1.27
2023-01-10T10:14:05.704Z,1.20
2023-01-10T10:17:27.756Z,0.97
2023-01-10T10:20:53.207Z,1.30
2023-01-10T10:24:18.193Z,1.03
2023-01-10T10:27:29.234Z,1.50
2023-01-10T10:30:42.366Z,1.27
2023-01-10T10:33:48.941Z,1.00
2023-01-10T10:37:01.205Z,0.97
2023-01-10T10:40:07.450Z,1.20
2023-01-10T10:43:21.483Z,1.00
2023-01-10T10:46:23.620Z,1.00
2023-01-10T10:50:03.870Z,1.17
2023-01-10T10:53:06.493Z,1.00
2023-01-10T10:56:12.283Z,1.00
2023-01-10T10:59:18.459Z,0.90
2023-01-10T11:02:28.116Z,1.13
2023-01-10T11:05:38.023Z,1.17
2023-01-10T11:08:43.635Z,1.53
2023-01-10T11:11:47.467Z,1.00
2023-01-10T11:14:51.691Z,1.80
2023-01-10T11:18:05.980Z,0.73
2023-01-10T11:21:15.147Z,0.87
2023-01-10T11:24:40.264Z,3.37
2023-01-10T11:27:58.638Z,0.83
2023-01-10T11:31:03.104Z,0.90
2023-01-10T11:34:08.832Z,0.80
2023-01-10T11:37:33.433Z,0.67
2023-01-10T11:40:38.164Z,0.63
2023-01-10T11:43:41.412Z,0.47
2023-01-10T11:46:47.402Z,0.80
2023-01-10T11:49:51.222Z,0.80
2023-01-10T11:52:53.599Z,0.90
2023-01-10T11:55:55.528Z,0.90
2023-01-10T11:59:02.719Z,0.90
2023-01-10T12:02:14.455Z,1.20
2023-01-10T12:05:23.838Z,1.20
2023-01-10T12:08:39.280Z,1.10
2023-01-10T12:11:41.767Z,1.00
2023-01-10T12:14:45.251Z,1.00
2023-01-10T12:17:47.625Z,0.83
2023-01-10T12:20:52.972Z,0.77
2023-01-10T12:23:59.120Z,0.70
2023-01-10T12:27:03.919Z,0.77
2023-01-10T12:30:19.022Z,1.00
2023-01-10T12:33:40.869Z,1.20
2023-01-10T12:36:54.637Z,0.80
2023-01-10T12:40:03.797Z,0.80
2023-01-10T12:43:37.615Z,0.87
2023-01-10T12:47:06.265Z,0.90
2023-01-10T12:50:21.282Z,0.93
2023-01-10T12:53:44.998Z,1.00
2023-01-10T12:56:47.315Z,1.20
2023-01-10T12:59:50.113Z,1.60
2023-01-10T13:02:55.661Z,1.07
2023-01-10T13:05:58.823Z,0.97
2023-01-10T13:09:06.495Z,1.10
2023-01-10T13:12:34.692Z,1.03
2023-01-10T13:15:48.687Z,1.30
2023-01-10T13:19:02.150Z,1.67
2023-01-10T13:22:35.152Z,2.27
2023-01-10T13:25:38.386Z,3.23
2023-01-10T13:28:51.187Z,3.20
2023-01-10T13:31:58.038Z,1.47
2023-01-10T13:35:11.679Z,1.07
2023-01-10T13:38:38.448Z,0.70
2023-01-10T13:42:17.124Z,0.67
2023-01-10T13:45:24.558Z,0.90
2023-01-10T13:48:28.247Z,0.83
2023-01-10T13:51:33.648Z,1.30
2023-01-10T13:54:35.558Z,1.23
2023-01-10T13:57:51.843Z,0.90
2023-01-10T14:01:14.514Z,0.90
2023-01-10T14:04:44.551Z,3.20
2023-01-10T14:07:51.277Z,0.80
2023-01-10T14:11:06.990Z,1.90
2023-01-10T14:14:33.255Z,1.07
2023-01-10T14:17:37.226Z,1.13
2023-01-10T14:20:39.754Z,1.00
2023-01-10T14:23:50.369Z,1.50
2023-01-10T14:26:57.185Z,1.37
2023-01-10T14:30:01.642Z,1.00
2023-01-10T14:33:20.199Z,0.60
2023-01-10T14:36:26.375Z,0.90
2023-01-10T14:39:29.537Z,1.17
2023-01-10T14:42:32.378Z,1.20
2023-01-10T14:45:39.140Z,1.20
2023-01-10T14:48:47.924Z,1.00
2023-01-10T14:51:52.031Z,1.03
2023-01-10T14:55:18.375Z,1.20
2023-01-10T14:58:20.413Z,1.17
2023-01-10T15:01:30.551Z,0.90
2023-01-10T15:04:34.106Z,1.40
2023-01-10T15:07:36.939Z,1.27
2023-01-10T15:10:41.912Z,1.30
2023-01-10T15:13:53.367Z,2.30
2023-01-10T15:17:00.455Z,2.27
2023-01-10T15:20:04.248Z,2.00
2023-01-10T15:23:06.067Z,1.70
2023-01-10T15:26:31.152Z,2.80
2023-01-10T15:29:34.140Z,2.50
2023-01-10T15:32:40.332Z,2.00
2023-01-10T15:35:45.596Z,1.53
2023-01-10T15:38:48.268Z,1.90
2023-01-10T15:41:50.810Z,1.70
2023-01-10T15:44:54.659Z,1.80
2023-01-10T15:48:03.432Z,1.00
2023-01-10T15:51:27.449Z,1.00
2023-01-10T15:54:30.921Z,2.23
2023-01-10T15:57:33.288Z,2.00
2023-01-10T16:00:35.329Z,7.07
2023-01-10T16:03:46.450Z,2.60
2023-01-10T16:06:50.976Z,4.60
2023-01-10T16:10:08.023Z,1.87
2023-01-10T16:13:31.758Z,2.00
2023-01-10T16:16:34.414Z,1.67
2023-01-10T16:19:36.300Z,1.67
2023-01-10T16:22:39.576Z,1.60
2023-01-10T16:25:45.117Z,1.40
2023-01-10T16:28:47.016Z,0.73
2023-01-10T16:31:49.736Z,0.83
2023-01-10T16:34:51.672Z,1.20
2023-01-10T16:37:58.168Z,1.20
2023-01-10T16:41:22.310Z,1.00
2023-01-10T16:44:24.144Z,1.27
2023-01-10T16:47:26.135Z,1.00
2023-01-10T16:50:28.067Z,1.03
2023-01-10T16:53:30.315Z,1.40
2023-01-10T16:56:32.307Z,2.03
2023-01-10T16:59:34.276Z,1.37
2023-01-10T17:02:36.214Z,0.80
2023-01-10T17:05:39.117Z,0.60
2023-01-10T17:08:43.826Z,0.53
2023-01-10T17:11:46.490Z,0.80
2023-01-10T17:14:48.508Z,1.37
2023-01-10T17:17:50.615Z,0.63
2023-01-10T17:20:52.905Z,0.70
2023-01-10T17:23:55.021Z,0.50
2023-01-10T17:26:57.190Z,0.60
2023-01-10T17:29:59.191Z,0.50
2023-01-10T17:33:01.609Z,0.80
2023-01-10T17:36:05.069Z,1.53
2023-01-10T17:39:07.262Z,2.40
2023-01-10T17:42:10.151Z,3.03
2023-01-10T17:45:12.085Z,1.60
2023-01-10T17:48:16.615Z,1.50
2023-01-10T17:51:18.959Z,1.30
2023-01-10T17:54:21.976Z,0.87
2023-01-10T17:57:25.525Z,0.80
2023-01-10T18:00:27.580Z,1.03
2023-01-10T18:03:29.616Z,0.67
2023-01-10T18:06:32.046Z,0.87
2023-01-10T18:09:34.698Z,0.93
2023-01-10T18:12:37.521Z,0.60
2023-01-10T18:15:47.790Z,1.10
2023-01-10T18:18:50.235Z,2.77
2023-01-10T18:21:52.165Z,3.30
2023-01-10T18:24:55.207Z,3.90
2023-01-10T18:28:00.316Z,2.97
2023-01-10T18:31:05.992Z,4.23
2023-01-10T18:34:08.968Z,1.63
2023-01-10T18:37:11.378Z,1.07
2023-01-10T18:40:13.906Z,0.70
2023-01-10T18:43:16.171Z,0.53
2023-01-10T18:46:20.727Z,0.70
2023-01-10T18:49:22.808Z,0.70
2023-01-10T18:52:25.304Z,0.90
2023-01-10T18:55:27.285Z,1.70
2023-01-10T18:58:32.783Z,1.30
2023-01-10T19:01:34.962Z,1.00
2023-01-10T19:04:36.957Z,2.40
2023-01-10T19:07:38.959Z,2.07
2023-01-10T19:11:11.375Z,0.80
2023-01-10T19:14:07.365Z,1.27
2023-01-10T19:17:09.382Z,0.80
2023-01-10T19:20:11.997Z,0.50
2023-01-10T19:23:13.830Z,0.70
2023-01-10T19:26:17.319Z,1.13
2023-01-10T19:29:19.859Z,1.30
2023-01-10T19:32:21.888Z,1.37
2023-01-10T19:35:23.968Z,1.30
2023-01-10T19:38:26.035Z,1.00
2023-01-10T19:41:29.145Z,1.03
2023-01-10T19:44:31.104Z,1.20
2023-01-10T19:47:32.985Z,1.67
2023-01-10T19:50:34.982Z,1.07
2023-01-10T19:53:39.438Z,1.30
2023-01-10T19:56:42.272Z,4.50
2023-01-10T19:59:45.671Z,7.40
2023-01-10T20:02:47.555Z,9.60
2023-01-10T20:05:49.433Z,3.47
2023-01-10T20:08:55.184Z,1.33
2023-01-10T20:11:57.145Z,1.10
2023-01-10T20:14:59.248Z,0.90
2023-01-10T20:18:01.182Z,0.80
2023-01-10T20:21:08.234Z,1.17
2023-01-10T20:24:18.022Z,0.97
2023-01-10T20:27:21.295Z,1.47
2023-01-10T20:30:23.161Z,1.80
2023-01-10T20:33:27.176Z,1.30
2023-01-10T20:36:30.210Z,1.13
2023-01-10T20:39:33.220Z,0.90
2023-01-10T20:42:35.018Z,0.90
2023-01-10T20:45:36.906Z,0.40
2023-01-10T20:48:40.765Z,0.70
2023-01-10T20:51:42.708Z,0.70
2023-01-10T20:54:44.654Z,1.03
2023-01-10T20:57:46.911Z,1.27
2023-01-10T21:00:48.795Z,1.57
2023-01-10T21:03:51.220Z,0.90
2023-01-10T21:06:54.174Z,0.33
2023-01-10T21:09:56.148Z,0.60
2023-01-10T21:12:58.164Z,0.73
2023-01-10T21:16:02.025Z,1.00
2023-01-10T21:19:05.337Z,0.90
2023-01-10T21:22:07.800Z,0.80
2023-01-10T21:25:10.536Z,0.83
2023-01-10T21:28:13.269Z,0.83
2023-01-10T21:31:17.407Z,0.90
2023-01-10T21:34:19.454Z,1.10
2023-01-10T21:37:21.736Z,1.30
2023-01-10T21:40:27.847Z,0.90
2023-01-10T21:43:31.929Z,0.90
2023-01-10T21:46:35.080Z,0.60
2023-01-10T21:49:37.012Z,0.60
2023-01-10T21:52:40.430Z,1.37
2023-01-10T21:55:44.286Z,1.53
2023-01-10T21:58:48.331Z,1.33
2023-01-10T22:01:50.192Z,1.30
2023-01-10T22:04:53.088Z,1.53
2023-01-10T22:07:58.218Z,0.70
2023-01-10T22:11:00.300Z,0.60
2023-01-10T22:14:02.153Z,1.00
2023-01-10T22:17:04.504Z,0.60
2023-01-10T22:20:07.969Z,0.67
2023-01-10T22:23:10.288Z,0.90
2023-01-10T22:26:15.284Z,0.90
2023-01-10T22:29:17.180Z,0.77
2023-01-10T22:32:19.038Z,1.03
2023-01-10T22:35:21.995Z,0.70
2023-01-10T22:38:23.937Z,0.63
2023-01-10T22:41:27.047Z,0.57
2023-01-10T22:44:29.035Z,0.40
2023-01-10T22:47:31.010Z,0.57
2023-01-10T22:50:33.181Z,0.50
2023-01-10T22:53:35.208Z,0.60
2023-01-10T22:56:37.690Z,0.40
2023-01-10T22:59:39.681Z,0.93
2023-01-10T23:02:41.603Z,0.60
2023-01-10T23:05:43.666Z,0.53
2023-01-10T23:08:45.791Z,0.70
2023-01-10T23:11:48.326Z,0.50
2023-01-10T23:14:50.220Z,0.57
2023-01-10T23:17:52.226Z,0.40
2023-01-10T23:20:54.729Z,0.30
2023-01-10T23:23:57.333Z,0.83
2023-01-10T23:26:59.865Z,0.83
2023-01-10T23:30:01.920Z,0.60
2023-01-10T23:33:04.085Z,0.53
2023-01-10T23:36:06.810Z,0.40
2023-01-10T23:39:08.744Z,0.60
2023-01-10T23:42:10.689Z,0.70
2023-01-10T23:45:13.047Z,0.60
2023-01-10T23:48:15.219Z,0.50
2023-01-10T23:51:17.398Z,0.70
2023-01-10T23:54:19.649Z,0.50
2023-01-10T23:57:22.519Z,0.60
